Adel, OR (97620)

3:31 AM PDT on July 30, 2016 (GMT -0700)
Alturas Municipal | | Change Station
Active Advisory: Fire Weather Watch Active Notice: Record Report

Elev 4373 ft 41.49 °N, 120.56 °W | Updated 36 minutes ago

Clear
Clear
64 °F
Feels Like 64 °F
N
0
Wind Variable Wind from North

Today
High -- | Low -- °F
--% Chance of Precip.
Yesterday
High -- | Low -- °F
Precip. -- in
Pressure 29.85 in
Visibility 10.0 miles
Clouds Clear
Dew Point 49 °F
Humidity 58%
Rainfall 0.00 in
Snow Depth Not available.
5:50 AM 8:19 PM
Waning Crescent, 14% visible
METAR KAAT 300955Z AUTO 00000KT 10SM CLR 18/09 A3002 RMK AO2 SLP106 T01780094
Pressure 29.85 in
Visibility 10.0 miles
Clouds Clear
Dew Point 49 °F
Humidity 58%
Rainfall 0.00 in
Snow Depth Not available.
5:50 AM 8:19 PM
Waning Crescent, 14% visible
METAR KAAT 300955Z AUTO 00000KT 10SM CLR 18/09 A3002 RMK AO2 SLP106 T01780094

10-Day Weather Forecast

Almanac

Astronomy

Jul. 30, 2016 Rise Set
Actual Time
Civil Twilight
Nautical Twilight
Astronomical Twilight
Moon
Length of Visible Light
Length of Day
Tomorrow will be .
, % of the Moon is Illuminated

Today's Extremes

State Highs State Lows

Community

WunderPhotos

Upload Photos

1,928,530 photos uploaded!

WunderBlog® & News

Nearby

Air Quality

  Air Quality AQ Index Pollutant
Not available.

Snow Depth

Station Depth Elevation

Earthquake Activity

City Distance Mag. Time & Date
Minimum magnitude displayed is 2.5.

Coastal Water Temperatures

Place Temperature

Stations

Nearby Weather Stations

Station Location Temp. Windchill Dew Point Humidity Wind Precip. Elev Updated Type
                   

Watches & Warnings

Fire Weather Watch
Issued: 2:56 AM PDT Jul. 30, 2016 – National Weather Service

... Fire Weather Watch remains in effect from Sunday afternoon
through Sunday evening for gusty winds and low humidities for
fire weather zone 624...

... Fire Weather Watch remains in effect from Monday afternoon
through Monday evening for gusty winds and low humidities for
fire weather zone 624...

* impacts: very low relative humidities and gusty winds Sunday
afternoon and evening will result in the potential for rapid
fire spread. Stronger winds on Monday with similarly low
relative humidities will result in a greater potential for rapid
fire spread over a larger area.

* Affected area: in south central or... southeastern portion of fire
weather zone 624.

* Wind: - sunday: southwest 10 to 15 mph with gusts up to 25 mph.
        - Monday: southwest 15 to 20 mph with gusts up to 30 mph.

* Minimum relative humidity: 10 to 15 percent.

* Haines index: 5 (moderate).

* View the hazard area in detail at http://weather.Gov/Medford/hazard

Precautionary/preparedness actions...

* a Fire Weather Watch means that critical fire weather conditions
are forecast to occur.

* Listen for latest forecasts and possible red flag warnings.

* One less spark--one less wildfire.



Visit US at www.Weather.Gov/Medford